createdAt,value
2023-03-08T00:20:10.373Z,6.46
2023-03-08T00:22:40.751Z,6.07
2023-03-08T00:25:10.700Z,5.07
2023-03-08T00:27:39.251Z,5.58
2023-03-08T00:30:06.853Z,5.86
2023-03-08T00:32:34.148Z,5.61
2023-03-08T00:35:01.126Z,5.77
2023-03-08T00:37:30.464Z,5.30
2023-03-08T00:39:57.435Z,5.15
2023-03-08T00:42:25.389Z,5.40
2023-03-08T00:44:52.767Z,5.14
2023-03-08T00:47:20.010Z,5.36
2023-03-08T00:49:46.978Z,5.56
2023-03-08T00:52:13.917Z,5.51
2023-03-08T00:54:40.948Z,5.86
2023-03-08T00:57:07.864Z,5.85
2023-03-08T00:59:37.990Z,5.84
2023-03-08T01:02:04.757Z,5.81
2023-03-08T01:04:34.122Z,5.93
2023-03-08T01:07:03.663Z,6.42
2023-03-08T01:09:33.197Z,6.56
2023-03-08T01:12:00.766Z,6.64
2023-03-08T01:14:36.882Z,6.86
2023-03-08T01:17:05.517Z,6.77
2023-03-08T01:19:35.781Z,6.89
2023-03-08T01:22:11.088Z,6.98
2023-03-08T01:24:39.136Z,7.15
2023-03-08T01:27:05.995Z,6.93
2023-03-08T01:29:33.045Z,7.08
2023-03-08T01:32:00.144Z,7.20
2023-03-08T01:34:26.956Z,7.31
2023-03-08T01:36:53.931Z,7.28
2023-03-08T01:39:21.426Z,7.34
2023-03-08T01:41:48.315Z,7.50
2023-03-08T01:44:17.585Z,7.57
2023-03-08T01:46:45.084Z,7.55
2023-03-08T01:49:29.223Z,7.68
2023-03-08T01:52:08.664Z,7.73
2023-03-08T01:54:51.984Z,7.84
2023-03-08T01:57:31.807Z,7.68
2023-03-08T02:00:26.312Z,6.46
2023-03-08T02:02:53.200Z,6.69
2023-03-08T02:05:23.617Z,6.99
2023-03-08T02:07:50.524Z,6.90
2023-03-08T02:10:29.112Z,6.69
2023-03-08T02:12:56.064Z,5.74
2023-03-08T02:15:23.155Z,5.84
2023-03-08T02:17:52.995Z,6.55
2023-03-08T02:20:27.270Z,6.88
2023-03-08T02:22:54.450Z,6.11
2023-03-08T02:25:24.873Z,6.68
2023-03-08T02:27:59.403Z,6.60
2023-03-08T02:30:31.577Z,6.73
2023-03-08T02:32:58.539Z,7.04
2023-03-08T02:35:25.550Z,7.02
2023-03-08T02:37:52.555Z,7.12
2023-03-08T02:40:19.451Z,7.24
2023-03-08T02:42:46.399Z,7.20
2023-03-08T02:45:13.372Z,7.26
2023-03-08T02:47:40.728Z,7.40
2023-03-08T02:50:08.488Z,7.39
2023-03-08T02:52:35.377Z,7.39
2023-03-08T02:55:02.678Z,7.64
2023-03-08T02:57:29.667Z,7.47
2023-03-08T02:59:58.988Z,7.42
2023-03-08T03:02:28.808Z,7.50
2023-03-08T03:04:55.767Z,7.62
2023-03-08T03:07:22.639Z,7.52
2023-03-08T03:09:49.548Z,7.64
2023-03-08T03:12:16.457Z,7.66
2023-03-08T03:14:46.262Z,6.63
2023-03-08T03:17:12.985Z,4.89
2023-03-08T03:19:40.046Z,5.92
2023-03-08T03:22:06.947Z,6.57
2023-03-08T03:24:35.411Z,5.16
2023-03-08T03:27:03.771Z,5.94
2023-03-08T03:29:30.732Z,5.73
2023-03-08T03:31:57.638Z,6.11
2023-03-08T03:34:24.977Z,6.80
2023-03-08T03:36:52.129Z,6.68
2023-03-08T03:39:19.238Z,6.73
2023-03-08T03:41:46.065Z,7.03
2023-03-08T03:44:13.373Z,7.24
2023-03-08T03:46:45.085Z,7.51
2023-03-08T03:49:13.088Z,7.39
2023-03-08T03:51:40.306Z,7.55
2023-03-08T03:54:07.538Z,7.34
2023-03-08T03:56:34.469Z,6.99
2023-03-08T03:59:01.408Z,7.53
2023-03-08T04:01:33.316Z,7.74
2023-03-08T04:04:00.928Z,6.44
2023-03-08T04:06:33.709Z,7.35
2023-03-08T04:09:07.223Z,7.33
2023-03-08T04:11:40.814Z,7.20
2023-03-08T04:14:08.803Z,7.51
2023-03-08T04:16:37.824Z,6.72
2023-03-08T04:19:08.000Z,7.09
2023-03-08T04:21:36.569Z,7.35
2023-03-08T04:24:04.074Z,7.45
2023-03-08T04:26:33.517Z,7.37
2023-03-08T04:29:01.067Z,7.70
2023-03-08T04:31:29.593Z,7.51
2023-03-08T04:33:58.512Z,7.82
2023-03-08T04:36:25.641Z,7.28
2023-03-08T04:38:53.990Z,7.00
2023-03-08T04:41:21.208Z,6.27
2023-03-08T04:43:55.098Z,7.01
2023-03-08T04:46:25.317Z,6.29
2023-03-08T04:48:56.079Z,6.07
2023-03-08T04:51:29.050Z,6.10
2023-03-08T04:53:56.334Z,6.42
2023-03-08T04:56:23.258Z,6.89
2023-03-08T04:58:50.204Z,6.84
2023-03-08T05:01:39.547Z,6.90
2023-03-08T05:04:06.515Z,7.07
2023-03-08T05:06:33.524Z,7.30
2023-03-08T05:09:00.376Z,7.39
2023-03-08T05:11:29.011Z,7.40
2023-03-08T05:14:18.846Z,7.57
2023-03-08T05:16:45.597Z,7.65
2023-03-08T05:19:12.538Z,7.66
2023-03-08T05:21:39.488Z,7.65
2023-03-08T05:24:07.166Z,7.60
2023-03-08T05:26:34.106Z,7.48
2023-03-08T05:29:07.835Z,7.63
2023-03-08T05:31:36.949Z,7.69
2023-03-08T05:34:03.858Z,7.57
2023-03-08T05:36:30.736Z,7.64
2023-03-08T05:38:57.585Z,7.72
2023-03-08T05:41:24.565Z,7.26
2023-03-08T05:43:51.515Z,7.41
2023-03-08T05:46:20.119Z,7.53
2023-03-08T05:48:47.309Z,7.60
2023-03-08T05:51:16.984Z,7.67
2023-03-08T05:53:47.066Z,7.74
2023-03-08T05:56:22.824Z,7.65
2023-03-08T05:58:52.405Z,7.44
2023-03-08T06:01:22.340Z,7.62
2023-03-08T06:03:51.319Z,7.69
2023-03-08T06:06:20.065Z,7.25
2023-03-08T06:08:49.908Z,7.16
2023-03-08T06:11:18.250Z,7.27
2023-03-08T06:13:45.318Z,7.18
2023-03-08T06:16:12.693Z,7.66
2023-03-08T06:18:41.450Z,7.58
2023-03-08T06:21:17.681Z,7.77
2023-03-08T06:23:45.662Z,7.86
2023-03-08T06:26:15.939Z,7.96
2023-03-08T06:28:46.924Z,7.79
2023-03-08T06:31:17.693Z,7.62
2023-03-08T06:33:45.253Z,7.54
2023-03-08T06:36:18.314Z,7.32
2023-03-08T06:38:46.361Z,6.80
2023-03-08T06:41:15.216Z,6.89
2023-03-08T06:43:42.578Z,7.19
2023-03-08T06:46:13.731Z,7.75
2023-03-08T06:48:44.171Z,7.80
2023-03-08T06:51:12.373Z,8.22
2023-03-08T06:53:47.548Z,8.32
2023-03-08T06:56:18.328Z,8.51
2023-03-08T06:58:46.517Z,8.57
2023-03-08T07:01:16.499Z,8.67
2023-03-08T07:03:46.143Z,8.74
2023-03-08T07:06:13.273Z,8.74
2023-03-08T07:08:40.640Z,8.64
2023-03-08T07:11:12.263Z,8.40
2023-03-08T07:13:39.919Z,8.74
2023-03-08T07:16:13.068Z,8.80
2023-03-08T07:18:42.330Z,8.62
2023-03-08T07:21:10.543Z,8.75
2023-03-08T07:23:38.767Z,8.72
2023-03-08T07:26:10.944Z,8.84
2023-03-08T07:28:37.982Z,8.94
2023-03-08T07:31:05.898Z,9.05
2023-03-08T07:33:33.027Z,9.27
2023-03-08T07:36:04.209Z,9.24
2023-03-08T07:38:31.341Z,9.61
2023-03-08T07:40:58.518Z,9.47
2023-03-08T07:43:26.252Z,9.60
2023-03-08T07:45:53.374Z,9.58
2023-03-08T07:48:20.425Z,9.60
2023-03-08T07:50:49.723Z,9.74
2023-03-08T07:53:16.686Z,9.72
2023-03-08T07:55:43.649Z,9.65
2023-03-08T07:58:10.855Z,9.70
2023-03-08T08:00:38.141Z,9.86
2023-03-08T08:03:07.342Z,10.07
2023-03-08T08:05:37.144Z,10.14
2023-03-08T08:08:04.550Z,9.96
2023-03-08T08:10:31.742Z,10.28
2023-03-08T08:12:59.719Z,10.54
2023-03-08T08:15:27.165Z,10.37
2023-03-08T08:17:54.174Z,10.46
2023-03-08T08:20:23.954Z,10.75
2023-03-08T08:22:53.552Z,10.63
2023-03-08T08:25:21.433Z,10.64
2023-03-08T08:27:48.505Z,10.72
2023-03-08T08:30:18.950Z,10.32
2023-03-08T08:32:46.186Z,10.05
2023-03-08T08:35:13.390Z,10.57
2023-03-08T08:37:40.525Z,10.04
2023-03-08T08:40:08.504Z,9.54
2023-03-08T08:42:39.186Z,10.36
2023-03-08T08:45:18.202Z,10.20
2023-03-08T08:47:47.007Z,10.74
2023-03-08T08:50:15.214Z,10.49
2023-03-08T08:52:55.202Z,10.24
2023-03-08T08:55:22.164Z,10.31
2023-03-08T08:57:49.191Z,9.87
2023-03-08T09:00:16.687Z,10.01
2023-03-08T09:02:43.699Z,9.98
2023-03-08T09:05:20.056Z,10.53
2023-03-08T09:07:53.383Z,10.56
2023-03-08T09:10:22.779Z,10.09
2023-03-08T09:12:49.716Z,9.56
2023-03-08T09:18:06.405Z,9.83
2023-03-08T09:20:38.381Z,10.02
2023-03-08T09:23:05.633Z,10.03
2023-03-08T09:25:39.922Z,9.77
2023-03-08T09:28:10.822Z,9.07
2023-03-08T09:30:38.351Z,9.50
2023-03-08T09:33:08.828Z,9.28
2023-03-08T09:35:35.856Z,9.21
2023-03-08T09:38:04.108Z,9.55
2023-03-08T09:40:50.127Z,9.93
2023-03-08T09:43:33.768Z,10.52
2023-03-08T09:46:00.841Z,10.86
2023-03-08T09:48:38.954Z,10.61
2023-03-08T09:51:11.881Z,10.79
2023-03-08T09:54:01.218Z,10.54
2023-03-08T09:56:42.184Z,10.91
2023-03-08T09:59:42.546Z,10.94
2023-03-08T10:02:39.487Z,10.97
2023-03-08T10:05:32.726Z,11.24
2023-03-08T10:08:18.135Z,10.81
2023-03-08T10:11:07.813Z,11.19
2023-03-08T10:13:39.561Z,11.23
2023-03-08T10:16:41.348Z,11.21
2023-03-08T10:19:29.633Z,11.44
2023-03-08T10:22:03.025Z,11.27
2023-03-08T10:24:54.991Z,11.49
2023-03-08T10:27:25.837Z,11.53
2023-03-08T10:30:04.991Z,11.99
2023-03-08T10:32:32.180Z,11.78
2023-03-08T10:35:05.078Z,11.91
2023-03-08T10:37:34.102Z,12.59
2023-03-08T10:40:06.352Z,12.14
2023-03-08T10:42:37.600Z,12.19
2023-03-08T10:45:15.412Z,12.12
2023-03-08T10:47:43.072Z,12.53
2023-03-08T10:50:15.736Z,12.98
2023-03-08T10:52:44.525Z,12.83
2023-03-08T10:55:32.418Z,13.23
2023-03-08T10:58:03.822Z,13.44
2023-03-08T11:00:37.803Z,13.76
2023-03-08T11:03:16.504Z,14.50
2023-03-08T11:06:01.754Z,14.24
2023-03-08T11:08:32.803Z,14.92
2023-03-08T11:11:02.260Z,14.15
2023-03-08T11:13:44.468Z,13.52
2023-03-08T11:16:17.735Z,13.72
2023-03-08T11:19:17.115Z,13.79
2023-03-08T11:22:08.343Z,14.29
2023-03-08T11:24:47.739Z,14.11
2023-03-08T11:30:30.271Z,14.55
2023-03-08T11:33:48.516Z,15.33
2023-03-08T11:36:29.946Z,15.71
2023-03-08T11:39:29.952Z,15.77
2023-03-08T11:42:45.085Z,16.19
2023-03-08T11:46:02.766Z,16.71
2023-03-08T11:48:43.433Z,17.30
2023-03-08T11:51:38.937Z,16.65
2023-03-08T11:54:11.216Z,17.16
2023-03-08T11:56:44.648Z,17.49
2023-03-08T11:59:34.871Z,17.36
2023-03-08T12:02:07.962Z,17.16
2023-03-08T12:04:43.223Z,17.10
2023-03-08T12:07:25.716Z,15.84
2023-03-08T12:10:27.638Z,16.05
2023-03-08T12:13:07.852Z,17.00
2023-03-08T12:15:41.747Z,16.33
2023-03-08T12:18:21.753Z,15.53
2023-03-08T12:20:52.716Z,14.67
2023-03-08T12:23:33.846Z,14.68
2023-03-08T12:26:22.450Z,13.86
2023-03-08T12:29:00.439Z,14.26
2023-03-08T12:31:31.104Z,14.24
2023-03-08T12:34:00.070Z,14.13
2023-03-08T12:36:42.317Z,14.37
2023-03-08T12:39:34.473Z,14.70
2023-03-08T12:42:19.946Z,14.60
2023-03-08T12:44:48.007Z,14.62
2023-03-08T12:47:15.077Z,14.00
2023-03-08T12:49:46.814Z,14.11
2023-03-08T12:52:20.564Z,14.37
2023-03-08T12:55:16.067Z,14.08
2023-03-08T12:57:58.346Z,14.29
2023-03-08T13:00:37.962Z,14.19
2023-03-08T13:03:24.489Z,13.75
2023-03-08T13:06:01.059Z,13.69
2023-03-08T13:08:38.160Z,13.92
2023-03-08T13:11:18.756Z,13.60
2023-03-08T13:14:01.137Z,13.89
2023-03-08T13:16:33.596Z,14.46
2023-03-08T13:19:15.968Z,14.64
2023-03-08T13:22:28.998Z,14.59
2023-03-08T13:25:30.059Z,14.64
2023-03-08T13:28:20.724Z,14.76
2023-03-08T13:31:01.520Z,14.72
2023-03-08T13:33:31.951Z,14.45
2023-03-08T13:36:05.306Z,14.89
2023-03-08T13:38:36.412Z,15.31
2023-03-08T13:41:13.627Z,15.07
2023-03-08T13:43:45.308Z,14.68
2023-03-08T13:46:18.373Z,14.54
2023-03-08T13:48:45.908Z,14.62
2023-03-08T13:51:19.232Z,15.07
2023-03-08T13:53:47.829Z,15.03
2023-03-08T13:56:25.358Z,15.86
2023-03-08T13:58:56.999Z,15.88
2023-03-08T14:01:26.580Z,16.36
2023-03-08T14:03:55.831Z,15.58
2023-03-08T14:06:39.869Z,15.48
2023-03-08T14:09:14.278Z,15.33
2023-03-08T14:11:50.368Z,15.28
2023-03-08T14:14:37.047Z,15.06
2023-03-08T14:17:05.553Z,15.55
2023-03-08T14:22:39.648Z,16.29
2023-03-08T14:25:33.040Z,16.83
2023-03-08T14:28:01.871Z,16.99
2023-03-08T14:30:31.259Z,17.23
2023-03-08T14:33:28.286Z,16.84
2023-03-08T14:36:01.055Z,17.32
2023-03-08T14:38:41.898Z,17.43
2023-03-08T14:41:19.779Z,17.42
2023-03-08T14:43:57.086Z,17.52
2023-03-08T14:46:29.698Z,17.68
2023-03-08T14:49:05.522Z,17.51
2023-03-08T14:51:44.937Z,17.76
2023-03-08T14:54:34.385Z,17.62
2023-03-08T15:00:18.004Z,17.89
2023-03-08T15:02:45.248Z,18.10
2023-03-08T15:05:29.306Z,17.85
2023-03-08T15:08:01.466Z,18.02
2023-03-08T15:10:41.832Z,18.07
2023-03-08T15:13:19.224Z,18.34
2023-03-08T15:15:47.232Z,18.01
2023-03-08T15:18:14.476Z,18.67
2023-03-08T15:20:45.793Z,18.48
2023-03-08T15:23:23.945Z,18.40
2023-03-08T15:25:57.192Z,18.55
2023-03-08T15:28:26.223Z,18.36
2023-03-08T15:30:59.954Z,18.57
2023-03-08T15:36:19.030Z,18.27
2023-03-08T15:38:46.195Z,18.01
2023-03-08T15:41:14.492Z,18.22
2023-03-08T15:43:41.800Z,18.47
2023-03-08T15:46:15.639Z,18.18
2023-03-08T15:48:46.010Z,18.47
2023-03-08T15:51:21.241Z,18.30
2023-03-08T15:53:53.775Z,18.19
2023-03-08T15:56:26.111Z,18.23
2023-03-08T15:58:53.466Z,18.08
2023-03-08T16:01:20.528Z,17.76
2023-03-08T16:03:49.718Z,17.81
2023-03-08T16:06:19.369Z,17.98
2023-03-08T16:08:48.204Z,17.81
2023-03-08T16:11:18.240Z,17.68
2023-03-08T16:13:45.320Z,17.66
2023-03-08T16:16:12.457Z,17.77
2023-03-08T16:18:40.631Z,17.79
2023-03-08T16:21:09.594Z,17.62
2023-03-08T16:23:42.058Z,17.65
2023-03-08T16:26:29.852Z,17.39
2023-03-08T16:28:56.902Z,17.30
2023-03-08T16:31:24.337Z,17.38
2023-03-08T16:33:53.110Z,17.10
2023-03-08T16:36:21.533Z,17.25
2023-03-08T16:38:48.872Z,16.92
2023-03-08T16:41:16.027Z,16.89
2023-03-08T16:43:48.171Z,16.84
2023-03-08T16:46:22.001Z,17.04
2023-03-08T16:48:56.870Z,16.69
2023-03-08T16:51:28.611Z,16.48
2023-03-08T16:53:55.600Z,16.94
2023-03-08T16:56:25.862Z,16.90
2023-03-08T16:58:58.182Z,16.89
2023-03-08T17:01:26.484Z,16.74
2023-03-08T17:03:53.522Z,16.95
2023-03-08T17:06:22.493Z,16.93
2023-03-08T17:08:50.174Z,16.73
2023-03-08T17:11:19.469Z,16.20
2023-03-08T17:13:51.550Z,16.28
2023-03-08T17:16:20.305Z,16.18
2023-03-08T17:18:48.781Z,16.11
2023-03-08T17:21:16.289Z,16.04
2023-03-08T17:23:43.791Z,16.03
2023-03-08T17:26:12.344Z,15.92
2023-03-08T17:28:40.416Z,15.73
2023-03-08T17:31:12.978Z,15.61
2023-03-08T17:33:40.690Z,15.48
2023-03-08T17:36:08.958Z,15.61
2023-03-08T17:38:36.293Z,15.83
2023-03-08T17:41:12.652Z,15.84
2023-03-08T17:43:41.273Z,15.62
2023-03-08T17:46:20.666Z,15.75
2023-03-08T17:48:48.045Z,15.64
2023-03-08T17:51:18.031Z,15.58
2023-03-08T17:53:46.099Z,15.82
2023-03-08T17:56:15.511Z,15.54
2023-03-08T17:58:43.477Z,15.59
2023-03-08T18:01:16.511Z,15.88
2023-03-08T18:04:08.409Z,15.93
2023-03-08T18:06:55.276Z,15.97
2023-03-08T18:09:22.322Z,15.52
2023-03-08T18:11:50.491Z,15.03
2023-03-08T18:14:17.549Z,15.25
2023-03-08T18:16:45.212Z,15.48
2023-03-08T18:19:12.452Z,15.22
2023-03-08T18:21:41.323Z,15.40
2023-03-08T18:24:12.873Z,15.75
2023-03-08T18:26:40.462Z,15.73
2023-03-08T18:29:08.067Z,15.69
2023-03-08T18:31:37.515Z,15.60
2023-03-08T18:34:16.414Z,15.30
2023-03-08T18:36:43.530Z,15.52
2023-03-08T18:39:13.542Z,15.63
2023-03-08T18:41:41.118Z,15.68
2023-03-08T18:44:08.452Z,15.75
2023-03-08T18:46:35.454Z,15.50
2023-03-08T18:49:09.181Z,15.27
2023-03-08T18:51:39.106Z,15.36
2023-03-08T18:54:11.462Z,15.16
2023-03-08T18:56:38.735Z,15.02
2023-03-08T18:59:09.538Z,15.11
2023-03-08T19:01:40.456Z,15.23
2023-03-08T19:04:09.593Z,14.58
2023-03-08T19:06:37.514Z,14.62
2023-03-08T19:09:18.633Z,15.13
2023-03-08T19:11:48.379Z,15.12
2023-03-08T19:14:33.215Z,14.90
2023-03-08T19:17:02.509Z,14.95
2023-03-08T19:19:29.792Z,14.77
2023-03-08T19:21:57.140Z,14.72
2023-03-08T19:24:26.927Z,14.97
2023-03-08T19:26:58.880Z,14.99
2023-03-08T19:29:29.182Z,14.50
2023-03-08T19:32:03.287Z,14.60
2023-03-08T19:34:34.956Z,14.58
2023-03-08T19:37:04.604Z,14.95
2023-03-08T19:39:34.835Z,14.62
2023-03-08T19:42:08.344Z,14.57
2023-03-08T19:44:35.665Z,14.90
2023-03-08T19:47:04.813Z,14.52
2023-03-08T19:49:34.904Z,14.88
2023-03-08T19:52:05.507Z,14.68
2023-03-08T19:54:32.976Z,15.05
2023-03-08T19:57:01.879Z,14.82
2023-03-08T19:59:31.257Z,15.11
2023-03-08T20:01:58.798Z,14.80
2023-03-08T20:04:25.802Z,14.70
2023-03-08T20:06:53.441Z,14.76
2023-03-08T20:09:24.391Z,14.88
2023-03-08T20:11:57.690Z,14.55
2023-03-08T20:14:27.600Z,14.69
2023-03-08T20:16:56.978Z,14.45
2023-03-08T20:19:24.017Z,14.42
2023-03-08T20:21:51.572Z,14.55
2023-03-08T20:24:20.236Z,14.64
2023-03-08T20:26:47.300Z,14.76
2023-03-08T20:29:14.346Z,14.35
2023-03-08T20:31:41.971Z,14.60
2023-03-08T20:34:09.134Z,14.66
2023-03-08T20:36:37.066Z,14.56
2023-03-08T20:39:04.542Z,14.48
2023-03-08T20:41:31.743Z,14.55
2023-03-08T20:43:58.734Z,14.56
2023-03-08T20:46:31.275Z,14.65
2023-03-08T20:48:58.423Z,14.51
2023-03-08T20:51:26.078Z,14.73
2023-03-08T20:53:55.308Z,14.43
2023-03-08T20:56:25.142Z,14.37
2023-03-08T20:58:55.279Z,14.69
2023-03-08T21:01:26.335Z,14.69
2023-03-08T21:03:54.421Z,14.08
2023-03-08T21:06:24.656Z,14.36
2023-03-08T21:08:52.120Z,14.18
2023-03-08T21:11:20.981Z,14.06
2023-03-08T21:13:49.698Z,13.99
2023-03-08T21:16:19.695Z,14.19
2023-03-08T21:18:59.949Z,14.35
2023-03-08T21:21:40.636Z,14.37
2023-03-08T21:24:12.038Z,14.40
2023-03-08T21:26:38.972Z,14.24
2023-03-08T21:29:10.163Z,14.35
2023-03-08T21:31:40.356Z,14.00
2023-03-08T21:34:08.834Z,14.32
2023-03-08T21:36:38.831Z,14.15
2023-03-08T21:39:07.774Z,14.20
2023-03-08T21:41:38.054Z,13.95
2023-03-08T21:44:09.549Z,14.20
2023-03-08T21:46:37.870Z,14.40
2023-03-08T21:49:05.860Z,13.97
2023-03-08T21:51:38.763Z,13.95
2023-03-08T21:54:07.506Z,13.82
2023-03-08T21:56:35.850Z,13.88
2023-03-08T21:59:04.816Z,13.80
2023-03-08T22:01:32.734Z,13.32
2023-03-08T22:04:01.529Z,13.51
2023-03-08T22:06:29.324Z,13.95
2023-03-08T22:08:57.947Z,13.87
2023-03-08T22:11:26.921Z,13.64
2023-03-08T22:14:06.258Z,13.84
2023-03-08T22:16:39.801Z,13.39
2023-03-08T22:19:07.209Z,13.34
2023-03-08T22:21:34.181Z,13.12
2023-03-08T22:24:03.061Z,13.87
2023-03-08T22:26:31.973Z,13.74
2023-03-08T22:28:59.871Z,14.02
2023-03-08T22:31:30.888Z,13.83
2023-03-08T22:33:58.537Z,13.92
2023-03-08T22:36:25.812Z,13.73
2023-03-08T22:38:53.220Z,13.84
2023-03-08T22:41:26.926Z,13.92
2023-03-08T22:43:54.514Z,13.47
2023-03-08T22:46:24.952Z,13.22
2023-03-08T22:48:54.722Z,13.10
2023-03-08T22:51:22.996Z,13.37
2023-03-08T22:53:51.565Z,13.19
2023-03-08T22:56:25.246Z,13.24
2023-03-08T22:58:53.132Z,13.48
2023-03-08T23:01:24.279Z,13.39
2023-03-08T23:03:57.064Z,13.54
2023-03-08T23:06:27.528Z,13.58
2023-03-08T23:08:59.351Z,13.45
2023-03-08T23:11:27.388Z,13.86
2023-03-08T23:13:54.791Z,13.71
2023-03-08T23:16:25.498Z,13.55
2023-03-08T23:18:54.224Z,13.83
2023-03-08T23:21:24.020Z,13.67
2023-03-08T23:23:51.785Z,13.90
2023-03-08T23:26:26.032Z,13.48
2023-03-08T23:28:57.203Z,13.77
2023-03-08T23:31:27.648Z,13.60
2023-03-08T23:33:55.281Z,13.67
2023-03-08T23:36:24.273Z,13.98
2023-03-08T23:38:51.961Z,13.97
2023-03-08T23:41:22.084Z,13.73
2023-03-08T23:43:49.202Z,13.71
2023-03-08T23:46:19.496Z,14.01
2023-03-08T23:48:49.503Z,14.04
2023-03-08T23:51:22.332Z,13.14
2023-03-08T23:53:55.482Z,13.94
2023-03-08T23:56:45.191Z,14.16
2023-03-08T23:59:22.855Z,13.64
